METAR UND TAF INFORMATION
LFBH 241130Z AUTO 31008KT 280V340 CAVOK 20/12 Q1023 NOSIG

 FLUGHAFENKARTE

 RUNWAY INFORMATION
Runway 10 Runway length 7398 ft Runway width 148 ft
Runway elevation 59 ft Runway displaced threshold 1033 ft Runway heading 93
Runway 28 Runway length 7398 ft Runway width 148 ft
Runway elevation 74 ft Runway displaced threshold 1532 ft Runway heading 273

 AIRPORT FREQUENCIES
Type APP Name LA ROCHELL Frequency 124.2 MHZ
Type ATIS Name LA ROCHELL Frequency 126.875 MHZ
Type TWR Name LA ROCHELL Frequency 118 MHZ

 AIRPORT NEAR NAVIGATION AIDS